Time;durP1;ratioP1;P1;durP2;ratioP2;P2;SDS_P1;SDS_P2;PMS_P1;PMS_P2;Temp;Humidity;BMP_temperature;BMP_pressure;BME280_temperature;BME280_humidity;BME280_pressure;Samples;Min_cycle;Max_cycle;Signal;HPM_P1;HPM_P2
2023/03/11 00:00:42;;;;;;;10.48;2.28;;;;;;;3.05;75.07;100659.97;5136397;27;20023;-69
2023/03/11 00:03:08;;;;;;;3.72;1.70;;;;;;;3.06;74.91;100667.84;5136258;27;20030;-69
2023/03/11 00:05:36;;;;;;;4.40;1.80;;;;;;;3.05;74.94;100675.63;5135928;27;20039;-69
2023/03/11 00:08:03;;;;;;;6.22;1.90;;;;;;;3.00;75.83;100667.63;5136494;27;20039;-68
2023/03/11 00:10:35;;;;;;;8.70;2.30;;;;;;;3.05;75.73;100680.84;5136106;27;20038;-68
2023/03/11 00:13:01;;;;;;;9.63;2.40;;;;;;;3.00;73.85;100673.75;5136355;27;20027;-69
2023/03/11 00:15:28;;;;;;;9.65;1.90;;;;;;;2.92;74.50;100679.50;5135988;27;20139;-69
2023/03/11 00:17:53;;;;;;;8.00;2.15;;;;;;;2.91;75.03;100681.22;5135901;27;20068;-69
2023/03/11 00:20:27;;;;;;;7.93;2.20;;;;;;;2.93;75.29;100676.94;5136037;27;20369;-69
2023/03/11 00:22:52;;;;;;;4.45;2.17;;;;;;;2.95;74.53;100684.81;5135843;27;20015;-68
2023/03/11 00:25:19;;;;;;;6.13;1.95;;;;;;;2.97;74.86;100688.38;5117587;27;20545;-68
2023/03/11 00:27:45;;;;;;;5.82;1.90;;;;;;;2.96;74.79;100697.06;5135794;27;20031;-68
2023/03/11 00:30:11;;;;;;;9.13;2.20;;;;;;;2.98;74.96;100700.59;5135922;27;20020;-68
2023/03/11 00:32:37;;;;;;;5.65;2.00;;;;;;;2.93;73.41;100696.94;5135534;27;20027;-68
2023/03/11 00:35:04;;;;;;;9.82;2.10;;;;;;;2.87;73.85;100699.28;5135720;27;20035;-68
2023/03/11 00:37:29;;;;;;;4.70;1.80;;;;;;;2.86;74.37;100703.63;5135398;27;20036;-68
2023/03/11 00:39:54;;;;;;;8.40;1.80;;;;;;;2.93;74.87;100709.97;5135610;27;20023;-68
2023/03/11 00:42:20;;;;;;;10.63;2.03;;;;;;;2.93;74.32;100716.09;5135537;27;20031;-67
2023/03/11 00:44:45;;;;;;;6.55;1.83;;;;;;;2.88;73.94;100715.03;5135412;27;20035;-66
2023/03/11 00:47:11;;;;;;;10.55;2.10;;;;;;;2.86;74.11;100721.00;5135476;27;20026;-67
2023/03/11 00:49:36;;;;;;;6.28;1.73;;;;;;;2.79;73.25;100714.66;5135329;27;20039;-67
2023/03/11 00:52:02;;;;;;;5.70;1.75;;;;;;;2.76;73.95;100712.81;5117046;27;20015;-66
2023/03/11 00:54:28;;;;;;;13.45;2.33;;;;;;;2.83;73.71;100716.56;5135333;27;20099;-67
2023/03/11 00:56:53;;;;;;;5.90;1.80;;;;;;;2.89;74.91;100721.13;5135271;27;20027;-67
2023/03/11 00:59:19;;;;;;;7.07;2.00;;;;;;;2.83;73.05;100720.91;5135221;27;20407;-66
2023/03/11 01:01:44;;;;;;;6.43;1.90;;;;;;;2.78;73.84;100717.19;5135010;27;20023;-68
2023/03/11 01:04:09;;;;;;;6.18;1.88;;;;;;;2.76;73.15;100731.06;5135024;27;20464;-67
2023/03/11 01:06:35;;;;;;;7.28;2.00;;;;;;;2.78;73.64;100731.13;5134835;27;20055;-67
2023/03/11 01:09:00;;;;;;;7.47;1.80;;;;;;;2.80;73.96;100739.03;5134941;27;20045;-67
2023/03/11 01:11:26;;;;;;;5.78;1.90;;;;;;;2.74;72.89;100743.19;5135231;27;20072;-67
2023/03/11 01:13:51;;;;;;;5.85;1.70;;;;;;;2.72;72.88;100746.53;5134911;27;20054;-67
2023/03/11 01:16:17;;;;;;;4.95;1.65;;;;;;;2.77;73.86;100752.81;5135179;27;20119;-67
2023/03/11 01:18:42;;;;;;;7.85;2.13;;;;;;;2.78;72.86;100749.38;5134908;27;20027;-67
2023/03/11 01:21:07;;;;;;;7.05;1.90;;;;;;;2.76;72.74;100744.13;5134794;27;20088;-67
2023/03/11 01:23:33;;;;;;;9.55;2.20;;;;;;;2.71;72.26;100753.47;5134632;27;20083;-66
2023/03/11 01:25:59;;;;;;;6.28;1.80;;;;;;;2.65;72.76;100755.81;5134689;27;20031;-67
2023/03/11 01:28:24;;;;;;;5.22;1.90;;;;;;;2.63;72.99;100757.50;5134943;27;20023;-66
2023/03/11 01:30:49;;;;;;;5.00;1.70;;;;;;;2.64;73.25;100763.59;5116183;27;20078;-67
2023/03/11 01:33:17;;;;;;;5.00;1.90;;;;;;;2.66;73.18;100757.63;5134399;27;20140;-66
2023/03/11 01:35:44;;;;;;;7.13;2.10;;;;;;;2.68;73.02;100761.16;5134713;27;20499;-66
2023/03/11 01:38:10;;;;;;;8.23;1.95;;;;;;;2.69;73.31;100764.66;5134727;27;20126;-66
2023/03/11 01:40:41;;;;;;;8.15;1.80;;;;;;;2.69;73.48;100751.63;5134439;27;20479;-66
2023/03/11 01:43:36;;;;;;;7.80;2.42;;;;;;;2.75;72.60;100758.00;5134365;27;20038;-66
2023/03/11 01:46:01;;;;;;;6.22;2.00;;;;;;;2.70;72.51;100762.13;5115928;27;20400;-66
2023/03/11 01:48:27;;;;;;;5.80;1.95;;;;;;;2.69;72.87;100756.84;5115905;27;20019;-66
2023/03/11 01:50:53;;;;;;;9.48;2.45;;;;;;;2.68;72.89;100763.78;5133858;27;20464;-66
2023/03/11 01:53:21;;;;;;;9.30;1.88;;;;;;;2.65;72.54;100766.25;5115799;27;20035;-65
2023/03/11 01:55:47;;;;;;;10.98;2.40;;;;;;;2.59;73.02;100754.69;5134226;27;20030;-66
2023/03/11 01:58:25;;;;;;;9.38;2.08;;;;;;;2.59;73.28;100766.00;5134142;27;20489;-65
2023/03/11 02:00:52;;;;;;;7.05;1.90;;;;;;;2.57;73.30;100754.66;5134274;27;20034;-65
2023/03/11 02:03:24;;;;;;;11.20;2.17;;;;;;;2.55;73.30;100753.66;5133795;27;20059;-65
2023/03/11 02:05:51;;;;;;;;;;;;;;;2.64;75.63;100766.19;5134582;27;20446;-65
2023/03/11 02:08:23;;;;;;;7.38;2.15;;;;;;;2.54;73.16;100766.66;5115701;27;20311;-65
2023/03/11 02:10:51;;;;;;;5.90;1.85;;;;;;;2.32;73.33;100749.22;5134214;27;20110;-65
2023/03/11 02:13:17;;;;;;;6.95;2.25;;;;;;;2.39;73.68;100764.28;5134062;28;20050;-65
2023/03/11 02:15:43;;;;;;;11.85;2.25;;;;;;;2.43;73.86;100766.19;5116057;28;20511;-65
2023/03/11 02:18:13;;;;;;;4.57;2.00;;;;;;;2.42;73.44;100767.91;5133890;28;20031;-64
2023/03/11 02:20:54;;;;;;;11.32;2.08;;;;;;;2.42;74.33;100770.53;5134244;28;20131;-64
2023/03/11 02:23:28;;;;;;;5.68;1.85;;;;;;;2.46;74.09;100774.16;5134169;28;20035;-64
2023/03/11 02:26:06;;;;;;;7.13;2.22;;;;;;;2.42;73.63;100769.63;5134248;28;20365;-64
2023/03/11 02:28:33;;;;;;;8.77;3.00;;;;;;;2.36;73.91;100766.78;5134247;28;20019;-64
2023/03/11 02:31:00;;;;;;;4.80;1.90;;;;;;;2.35;75.20;100773.69;5134102;28;20094;-64
2023/03/11 02:33:29;;;;;;;6.70;2.35;;;;;;;2.32;74.24;100762.25;5133603;28;20081;-64
2023/03/11 02:35:56;;;;;;;6.75;2.00;;;;;;;2.33;73.93;100770.13;5134096;28;20035;-64
2023/03/11 02:38:21;;;;;;;5.75;1.88;;;;;;;2.34;74.33;100768.41;5134039;28;20042;-64
2023/03/11 02:41:06;;;;;;;9.35;2.03;;;;;;;2.36;74.42;100769.41;5133788;28;20024;-64
2023/03/11 02:43:42;;;;;;;5.82;2.20;;;;;;;2.29;74.09;100765.63;5132577;28;20039;-64
2023/03/11 02:46:10;;;;;;;8.40;2.05;;;;;;;2.26;73.97;100768.09;5133741;28;20023;-64
2023/03/11 02:48:37;;;;;;;8.70;2.15;;;;;;;2.18;74.14;100767.75;5133616;28;20031;-64
2023/03/11 02:51:03;;;;;;;9.48;2.45;;;;;;;2.05;74.54;100765.44;5133622;28;20499;-64
2023/03/11 02:53:32;;;;;;;5.57;2.08;;;;;;;1.99;74.91;100768.69;5133631;28;20027;-64
2023/03/11 02:55:57;;;;;;;7.63;2.33;;;;;;;1.98;75.09;100768.63;5133861;28;20019;-64
2023/03/11 02:58:23;;;;;;;4.90;1.90;;;;;;;1.94;75.32;100764.09;5133614;27;20020;-64
2023/03/11 03:00:48;;;;;;;7.35;2.20;;;;;;;1.90;75.39;100763.06;5133510;27;20026;-64
2023/03/11 03:03:15;;;;;;;5.03;2.10;;;;;;;1.95;75.89;100755.44;5137089;27;20349;-63
2023/03/11 03:05:40;;;;;;;6.55;2.10;;;;;;;1.98;75.51;100759.09;5137132;27;20019;-64
2023/03/11 03:08:06;;;;;;;6.97;2.10;;;;;;;2.09;75.37;100769.97;5137708;27;20366;-64
2023/03/11 03:10:31;;;;;;;9.52;2.40;;;;;;;2.02;74.44;100762.72;5137354;27;20524;-64
2023/03/11 03:12:56;;;;;;;6.47;2.30;;;;;;;1.92;74.47;100766.63;5137319;27;20384;-64
2023/03/11 03:15:22;;;;;;;11.30;2.33;;;;;;;1.86;75.36;100778.50;5137437;27;20109;-64
2023/03/11 03:17:50;;;;;;;13.15;2.60;;;;;;;1.81;75.87;100772.19;5137125;27;20027;-64
2023/03/11 03:20:16;;;;;;;5.53;2.08;;;;;;;1.89;76.07;100786.47;5137448;27;20440;-64
2023/03/11 03:22:42;;;;;;;5.70;1.90;;;;;;;1.92;75.63;100787.47;5137379;27;20038;-64
2023/03/11 03:25:09;;;;;;;4.88;2.00;;;;;;;1.96;75.23;100797.19;5118961;27;20391;-64
2023/03/11 03:27:35;;;;;;;6.60;2.13;;;;;;;1.98;75.23;100806.00;5137032;27;20030;-65
2023/03/11 03:30:01;;;;;;;5.95;2.30;;;;;;;2.02;75.71;100808.75;5137192;27;20022;-65
2023/03/11 03:32:26;;;;;;;8.25;2.22;;;;;;;2.06;75.48;100813.28;5137048;27;20027;-64
2023/03/11 03:34:57;;;;;;;10.52;2.40;;;;;;;2.08;75.50;100815.09;5136794;27;20035;-65
2023/03/11 03:37:22;;;;;;;6.93;2.17;;;;;;;2.09;75.18;100818.59;5137127;27;20055;-65
2023/03/11 03:39:48;;;;;;;7.50;2.55;;;;;;;2.06;75.19;100827.19;5136758;27;20560;-64
2023/03/11 03:42:13;;;;;;;5.65;2.15;;;;;;;2.06;75.89;100828.91;5137037;27;20023;-64
2023/03/11 03:44:38;;;;;;;6.63;2.20;;;;;;;2.05;75.64;100832.31;5136839;27;20353;-65
2023/03/11 03:47:04;;;;;;;7.20;2.45;;;;;;;2.00;75.56;100837.31;5136677;27;20023;-65
2023/03/11 03:49:29;;;;;;;10.63;2.50;;;;;;;1.99;75.46;100839.03;5136506;27;20031;-65
2023/03/11 03:51:55;;;;;;;7.75;2.30;;;;;;;1.98;76.21;100837.25;5136622;27;20031;-65
2023/03/11 03:54:20;;;;;;;4.80;1.80;;;;;;;1.94;76.00;100843.16;5136506;27;20035;-65
2023/03/11 03:56:45;;;;;;;5.63;1.90;;;;;;;1.97;75.71;100839.78;5136305;27;20032;-65
2023/03/11 03:59:11;;;;;;;8.90;2.30;;;;;;;1.98;76.27;100833.78;5136294;27;20046;-64
2023/03/11 04:01:37;;;;;;;5.03;2.10;;;;;;;1.99;76.26;100838.16;5136224;27;20019;-65
2023/03/11 04:04:02;;;;;;;7.30;2.15;;;;;;;2.04;76.44;100836.63;5136024;27;20031;-65
2023/03/11 04:06:28;;;;;;;3.95;2.00;;;;;;;2.04;75.69;100840.97;5136213;27;20055;-65
2023/03/11 04:08:53;;;;;;;8.13;2.25;;;;;;;2.03;75.84;100847.91;5136189;27;20028;-65
2023/03/11 04:11:20;;;;;;;7.63;2.47;;;;;;;1.99;74.95;100844.25;5136414;27;20023;-65
2023/03/11 04:13:45;;;;;;;6.57;2.20;;;;;;;2.03;75.35;100850.50;5135677;27;20034;-65
2023/03/11 04:16:29;;;;;;;9.23;2.28;;;;;;;2.01;75.21;100849.53;5136276;27;20027;-65
2023/03/11 04:18:55;;;;;;;7.85;2.45;;;;;;;1.96;75.26;100849.31;5136269;27;20405;-65
2023/03/11 04:21:20;;;;;;;9.00;2.30;;;;;;;1.91;74.97;100847.34;5135344;27;20037;-65
2023/03/11 04:23:46;;;;;;;5.57;2.13;;;;;;;1.91;75.22;100849.94;5135839;27;20039;-65
2023/03/11 04:26:11;;;;;;;6.60;2.28;;;;;;;1.87;75.33;100856.72;5135939;27;20027;-64
2023/03/11 04:28:37;;;;;;;5.85;2.20;;;;;;;1.85;75.65;100860.09;5135896;27;20058;-65
2023/03/11 04:31:02;;;;;;;9.70;2.20;;;;;;;1.83;75.36;100854.78;5135843;27;20129;-65
2023/03/11 04:33:28;;;;;;;5.63;2.13;;;;;;;1.84;75.18;100858.28;5135555;27;20051;-65
2023/03/11 04:35:53;;;;;;;6.35;2.42;;;;;;;1.77;75.77;100856.25;5135710;27;20076;-65
2023/03/11 04:38:20;;;;;;;10.93;2.20;;;;;;;1.74;75.79;100864.78;5135756;27;20126;-65
2023/03/11 04:40:45;;;;;;;5.57;2.47;;;;;;;1.72;76.31;100869.94;5135539;27;20063;-65
2023/03/11 04:43:11;;;;;;;7.32;2.05;;;;;;;1.70;76.21;100865.47;5135761;27;20039;-65
2023/03/11 04:45:41;;;;;;;7.43;2.42;;;;;;;1.66;76.56;100863.53;5117043;27;20430;-64
2023/03/11 04:48:07;;;;;;;6.40;2.25;;;;;;;1.58;76.08;100859.69;5135762;27;20039;-65
2023/03/11 04:50:32;;;;;;;5.13;2.00;;;;;;;1.53;77.10;100864.69;5135730;27;20023;-65
2023/03/11 04:52:58;;;;;;;6.45;2.13;;;;;;;1.54;77.03;100862.97;5135375;27;20031;-65
2023/03/11 04:55:23;;;;;;;6.90;2.13;;;;;;;1.54;76.74;100866.47;5135330;27;20031;-66
2023/03/11 04:57:50;;;;;;;6.78;2.10;;;;;;;1.46;77.17;100850.50;5135078;27;20387;-64
2023/03/11 05:00:15;;;;;;;7.57;2.55;;;;;;;1.52;77.02;100867.22;5117407;27;20019;-65
2023/03/11 05:02:41;;;;;;;7.85;2.20;;;;;;;1.45;77.04;100851.28;5135135;27;20468;-65
2023/03/11 05:05:08;;;;;;;7.80;2.20;;;;;;;1.46;77.42;100862.63;5135142;27;20019;-65
2023/03/11 05:07:35;;;;;;;5.93;2.30;;;;;;;1.50;77.13;100874.97;5135058;27;20051;-65
2023/03/11 05:10:00;;;;;;;7.90;2.10;;;;;;;1.55;77.04;100876.06;5135001;27;20481;-65
2023/03/11 05:12:26;;;;;;;9.70;2.10;;;;;;;1.54;76.50;100865.56;5135049;27;20038;-65
2023/03/11 05:14:51;;;;;;;7.82;2.38;;;;;;;1.45;76.64;100864.31;5135007;27;20037;-65
2023/03/11 05:17:18;;;;;;;7.07;2.15;;;;;;;1.46;76.19;100879.13;5135193;27;20051;-64
2023/03/11 05:19:43;;;;;;;7.13;2.33;;;;;;;1.45;76.63;100877.31;5134994;27;20027;-65
2023/03/11 05:22:09;;;;;;;13.88;2.60;;;;;;;1.42;76.27;100887.63;5134982;27;20024;-64
2023/03/11 05:24:35;;;;;;;7.03;2.25;;;;;;;1.42;76.98;100881.53;5133918;27;20019;-65
2023/03/11 05:27:00;;;;;;;8.48;2.20;;;;;;;1.42;77.11;100884.13;5134726;27;20038;-64
2023/03/11 05:29:26;;;;;;;5.38;2.17;;;;;;;1.38;76.82;100882.19;5134938;27;20037;-65
2023/03/11 05:31:52;;;;;;;7.80;2.00;;;;;;;1.38;76.68;100882.19;5134474;27;20022;-64
2023/03/11 05:34:17;;;;;;;5.55;2.28;;;;;;;1.36;76.90;100891.63;5134496;27;20069;-64
2023/03/11 05:36:43;;;;;;;7.30;2.88;;;;;;;1.33;76.84;100901.88;5134532;27;20023;-65
2023/03/11 05:39:09;;;;;;;8.85;2.65;;;;;;;1.30;77.14;100899.16;5134811;27;20027;-64
2023/03/11 05:41:34;;;;;;;9.10;2.30;;;;;;;1.17;77.39;100898.53;5134695;27;20038;-64
2023/03/11 05:44:00;;;;;;;6.00;2.17;;;;;;;0.95;77.59;100888.78;5134283;27;20361;-64
2023/03/11 05:46:25;;;;;;;6.68;2.05;;;;;;;0.97;78.09;100899.25;5134648;27;20062;-64
2023/03/11 05:48:50;;;;;;;4.70;2.05;;;;;;;0.97;77.99;100902.75;5134275;27;20023;-64
2023/03/11 05:51:16;;;;;;;6.68;2.38;;;;;;;1.01;78.13;100906.41;5134187;27;20023;-64
2023/03/11 05:53:47;;;;;;;6.40;2.28;;;;;;;0.98;78.05;100896.72;5134190;27;20041;-64
2023/03/11 05:56:18;;;;;;;8.10;2.53;;;;;;;1.09;77.95;100912.88;5134100;27;20447;-64
2023/03/11 05:58:44;;;;;;;6.55;2.17;;;;;;;1.11;78.22;100915.56;5133605;27;20023;-64
2023/03/11 06:01:12;;;;;;;8.32;2.50;;;;;;;1.11;77.57;100912.94;5133664;27;20023;-64
2023/03/11 06:03:38;;;;;;;8.48;2.42;;;;;;;1.15;78.71;100920.09;5133284;27;20023;-65
2023/03/11 06:06:08;;;;;;;5.03;2.03;;;;;;;1.17;77.73;100926.28;5133212;27;20039;-64
2023/03/11 06:08:35;;;;;;;8.25;2.65;;;;;;;1.14;77.25;100931.31;5133392;27;20034;-64
2023/03/11 06:11:06;;;;;;;9.15;2.10;;;;;;;1.13;77.21;100924.34;5133464;27;20090;-64
2023/03/11 06:13:32;;;;;;;5.68;2.40;;;;;;;1.15;77.45;100927.91;5133756;27;20034;-63
2023/03/11 06:15:57;;;;;;;8.85;2.50;;;;;;;1.21;77.84;100929.13;5133420;28;20103;-64
2023/03/11 06:18:25;;;;;;;7.35;2.35;;;;;;;1.24;77.49;100933.56;5114823;28;20034;-64
2023/03/11 06:20:51;;;;;;;8.52;2.45;;;;;;;1.29;77.76;100931.22;5133257;28;20118;-64
2023/03/11 06:23:16;;;;;;;5.78;2.22;;;;;;;1.35;77.04;100936.72;5115135;28;20117;-64
2023/03/11 06:25:42;;;;;;;7.55;2.20;;;;;;;1.36;77.54;100941.97;5133199;28;20471;-63
2023/03/11 06:28:07;;;;;;;6.72;2.13;;;;;;;1.43;77.46;100944.06;5133517;27;20019;-64
2023/03/11 06:30:32;;;;;;;6.50;2.50;;;;;;;1.49;76.79;100954.78;5133161;28;20031;-64
2023/03/11 06:32:58;;;;;;;5.85;2.35;;;;;;;1.59;77.53;100948.31;5132879;28;20058;-64
2023/03/11 06:35:23;;;;;;;6.22;2.30;;;;;;;1.70;77.06;100949.72;5133844;27;20026;-63
2023/03/11 06:37:49;;;;;;;6.22;2.30;;;;;;;1.80;76.72;100952.75;5137420;27;20099;-65
2023/03/11 06:40:14;;;;;;;3.75;2.10;;;;;;;1.87;76.36;100945.31;5137506;27;20031;-65
2023/03/11 06:42:40;;;;;;;5.32;2.40;;;;;;;2.01;76.43;100951.16;5137462;27;20080;-64
2023/03/11 06:45:06;;;;;;;7.95;2.50;;;;;;;2.07;75.63;100961.88;5137442;27;20372;-63
2023/03/11 06:47:31;;;;;;;9.25;2.80;;;;;;;2.20;75.86;100966.84;5137085;27;20114;-63
2023/03/11 06:49:57;;;;;;;6.18;2.47;;;;;;;2.34;75.49;100971.78;5137237;27;20397;-64
2023/03/11 06:52:22;;;;;;;6.40;2.60;;;;;;;2.47;75.76;100982.84;5137427;27;20100;-64
2023/03/11 06:54:48;;;;;;;4.40;2.22;;;;;;;2.61;75.69;100983.50;5137208;27;20031;-64
2023/03/11 06:57:13;;;;;;;8.13;2.60;;;;;;;2.77;76.16;100990.25;5137379;27;20034;-64
2023/03/11 06:59:39;;;;;;;5.78;2.40;;;;;;;2.91;74.78;100990.88;5137134;27;20033;-63
2023/03/11 07:02:05;;;;;;;8.05;2.90;;;;;;;3.01;75.01;101000.91;5137055;27;20034;-64
2023/03/11 07:04:32;;;;;;;6.15;2.60;;;;;;;3.08;73.94;101002.94;5136721;27;20030;-63
2023/03/11 07:06:58;;;;;;;8.25;2.65;;;;;;;3.18;73.70;101001.63;5118523;27;20039;-64
2023/03/11 07:09:24;;;;;;;8.25;2.47;;;;;;;3.25;73.98;101012.41;5136835;27;20490;-64
2023/03/11 07:11:51;;;;;;;10.60;2.50;;;;;;;3.45;73.88;101010.63;5136968;27;20096;-64
2023/03/11 07:14:17;;;;;;;4.95;2.17;;;;;;;3.62;72.89;101013.06;5136852;27;20114;-64
2023/03/11 07:16:44;;;;;;;7.00;2.40;;;;;;;3.76;71.55;101019.72;5136955;27;20031;-64
2023/03/11 07:19:10;;;;;;;5.57;2.20;;;;;;;3.83;71.17;101021.78;5136858;27;20019;-64
2023/03/11 07:21:35;;;;;;;7.07;2.30;;;;;;;3.93;70.47;101020.41;5136869;27;20023;-65
2023/03/11 07:24:02;;;;;;;7.97;2.20;;;;;;;4.07;70.29;101015.72;5118073;27;20365;-64
2023/03/11 07:26:30;;;;;;;9.30;2.20;;;;;;;4.20;70.37;101024.13;5136310;27;20485;-65
2023/03/11 07:28:56;;;;;;;9.13;2.67;;;;;;;4.35;69.15;101026.44;5136515;27;20469;-64
2023/03/11 07:31:24;;;;;;;5.00;2.17;;;;;;;4.51;68.92;101026.19;5136694;27;20068;-64
2023/03/11 07:33:50;;;;;;;11.30;2.72;;;;;;;4.63;69.21;101027.50;5136224;27;20027;-63
2023/03/11 07:36:18;;;;;;;8.23;2.55;;;;;;;4.69;68.65;101026.00;5136160;27;20031;-64
2023/03/11 07:38:44;;;;;;;5.20;2.40;;;;;;;4.78;68.16;101021.09;5136481;27;20023;-64
2023/03/11 07:41:12;;;;;;;4.53;2.30;;;;;;;4.84;67.65;101030.94;5136065;27;20472;-64
2023/03/11 07:43:39;;;;;;;8.23;2.40;;;;;;;4.89;67.95;101037.22;5136258;27;20016;-64
2023/03/11 07:46:17;;;;;;;6.25;2.70;;;;;;;4.96;68.44;101035.69;5135959;27;20038;-64
2023/03/11 07:48:43;;;;;;;10.80;2.78;;;;;;;4.95;67.16;101032.19;5134893;27;20031;-65
2023/03/11 07:51:14;;;;;;;8.05;2.58;;;;;;;4.91;68.61;101032.03;5136016;27;20361;-66
2023/03/11 07:53:40;;;;;;;14.05;2.70;;;;;;;5.10;68.39;101037.09;5135946;27;20023;-66
2023/03/11 07:56:07;;;;;;;5.45;2.35;;;;;;;5.28;67.03;101049.97;5135985;27;20019;-65
2023/03/11 07:58:33;;;;;;;6.45;2.50;;;;;;;5.42;66.51;101042.56;5117483;27;20032;-65
2023/03/11 08:01:16;;;;;;;8.02;2.65;;;;;;;5.62;67.38;101054.63;5135746;27;20443;-67
2023/03/11 08:03:43;;;;;;;8.73;2.60;;;;;;;5.80;66.13;101051.75;5134172;27;20047;-67
2023/03/11 08:06:16;;;;;;;6.90;2.67;;;;;;;6.02;65.28;101056.00;5116723;27;20035;-67
2023/03/11 08:08:42;;;;;;;25.85;4.20;;;;;;;6.24;64.48;101054.94;5134822;27;20062;-67
2023/03/11 08:11:09;;;;;;;12.98;3.25;;;;;;;6.38;63.88;101056.28;5135004;27;20483;-67
2023/03/11 08:13:34;;;;;;;11.38;2.90;;;;;;;6.57;63.31;101056.84;5134839;27;20213;-68
2023/03/11 08:16:03;;;;;;;8.32;2.80;;;;;;;6.77;63.95;101060.97;5134845;27;20011;-68
2023/03/11 08:18:29;;;;;;;6.75;2.65;;;;;;;7.08;63.01;101057.47;5135325;27;20102;-68
2023/03/11 08:20:55;;;;;;;6.25;2.65;;;;;;;7.34;62.11;101062.56;5135811;27;20050;-68
2023/03/11 08:23:21;;;;;;;9.00;2.88;;;;;;;7.51;59.71;101050.75;5135313;27;20506;-69
2023/03/11 08:25:46;;;;;;;11.38;2.70;;;;;;;7.75;60.90;101058.38;5135363;27;20080;-69
2023/03/11 08:28:11;;;;;;;8.90;2.72;;;;;;;8.13;60.80;101047.91;5135455;27;20400;-69
2023/03/11 08:30:37;;;;;;;17.33;3.65;;;;;;;8.37;56.92;101056.41;5135141;27;20099;-69
2023/03/11 08:33:03;;;;;;;14.27;3.30;;;;;;;8.59;58.77;101054.28;5135376;27;20431;-69
2023/03/11 08:35:30;;;;;;;5.35;2.25;;;;;;;9.00;57.30;101053.41;5135240;27;20023;-69
2023/03/11 08:37:56;;;;;;;11.10;3.30;;;;;;;9.28;55.75;101052.19;5135457;27;20080;-69
2023/03/11 08:40:22;;;;;;;10.32;2.50;;;;;;;9.66;55.74;101057.28;5135016;27;20027;-69
2023/03/11 08:42:48;;;;;;;5.55;2.50;;;;;;;9.89;52.60;101060.34;5135029;27;20026;-69
2023/03/11 08:45:13;;;;;;;5.25;2.50;;;;;;;10.06;53.86;101065.88;5135002;27;20051;-69
2023/03/11 08:47:39;;;;;;;7.53;2.38;;;;;;;9.99;53.44;101064.91;5134982;27;20208;-69
2023/03/11 08:50:10;;;;;;;5.60;2.40;;;;;;;9.81;49.93;101067.25;5135022;27;20019;-69
2023/03/11 08:52:35;;;;;;;7.55;2.50;;;;;;;9.85;53.49;101074.34;5134904;27;20027;-69
2023/03/11 08:55:03;;;;;;;7.20;2.40;;;;;;;10.02;54.17;101077.25;5135116;27;20384;-69
2023/03/11 08:57:30;;;;;;;7.00;2.35;;;;;;;10.09;50.98;101076.50;5134875;27;20039;-68
2023/03/11 08:59:57;;;;;;;5.90;2.25;;;;;;;10.31;49.24;101076.88;5135085;27;20077;-69
2023/03/11 09:02:24;;;;;;;7.05;2.20;;;;;;;10.46;48.06;101087.69;5134640;27;20073;-69
2023/03/11 09:04:49;;;;;;;6.47;2.10;;;;;;;10.63;47.61;101091.47;5134901;27;20024;-69
2023/03/11 09:07:14;;;;;;;4.18;2.05;;;;;;;10.74;48.14;101081.03;5134322;27;20051;-69
2023/03/11 09:09:40;;;;;;;7.57;2.13;;;;;;;10.77;48.43;101083.72;5134705;27;20034;-69
2023/03/11 09:12:06;;;;;;;8.07;2.58;;;;;;;10.80;46.65;101085.53;5134332;27;20030;-68
2023/03/11 09:14:32;;;;;;;7.88;2.50;;;;;;;10.97;45.98;101078.72;5134544;27;20480;-69
2023/03/11 09:16:57;;;;;;;4.90;2.25;;;;;;;11.09;46.92;101085.88;5133640;27;20110;-68
2023/03/11 09:19:23;;;;;;;5.32;1.90;;;;;;;11.42;44.98;101086.28;5134472;27;20110;-68
2023/03/11 09:21:48;;;;;;;4.55;1.92;;;;;;;11.78;43.33;101090.22;5116096;27;20027;-68
2023/03/11 09:24:13;;;;;;;4.85;1.55;;;;;;;12.09;44.27;101090.53;5134118;27;20496;-69
2023/03/11 09:26:39;;;;;;;4.88;1.90;;;;;;;12.30;44.69;101085.41;5134314;27;20028;-69
2023/03/11 09:29:04;;;;;;;4.22;1.90;;;;;;;12.26;40.82;101091.53;5115713;27;20031;-68
2023/03/11 09:31:30;;;;;;;5.85;1.90;;;;;;;12.57;40.27;101090.00;5134253;27;20106;-67
2023/03/11 09:33:55;;;;;;;6.97;1.98;;;;;;;12.79;40.35;101105.16;5133822;27;20027;-68
2023/03/11 09:36:21;;;;;;;4.90;1.73;;;;;;;12.93;39.48;101096.38;5116003;27;20073;-68
2023/03/11 09:38:47;;;;;;;5.13;1.98;;;;;;;12.61;38.50;101101.50;5133944;27;20055;-68
2023/03/11 09:41:24;;;;;;;6.40;2.30;;;;;;;12.50;41.25;101107.63;5134037;27;20042;-68
2023/03/11 09:43:59;;;;;;;5.00;1.73;;;;;;;12.62;39.76;101105.91;5134010;27;20047;-68
2023/03/11 09:46:36;;;;;;;5.90;1.80;;;;;;;12.68;40.49;101093.59;5134175;27;20046;-68
2023/03/11 09:49:10;;;;;;;4.07;1.88;;;;;;;12.50;40.38;101101.41;5133896;27;20027;-68
2023/03/11 09:51:50;;;;;;;5.07;1.80;;;;;;;12.10;37.77;101100.22;5133706;27;20038;-68
2023/03/11 09:54:17;;;;;;;5.50;1.98;;;;;;;11.91;39.27;101104.50;5133975;27;20031;-68
2023/03/11 09:56:43;;;;;;;3.60;1.60;;;;;;;12.08;40.99;101096.69;5133515;27;20126;-68
2023/03/11 09:59:18;;;;;;;7.38;1.90;;;;;;;11.68;40.62;101086.56;5133965;27;20126;-68
2023/03/11 10:01:49;;;;;;;4.85;1.60;;;;;;;11.64;43.08;101100.63;5133679;27;20344;-68
2023/03/11 10:04:36;;;;;;;5.60;1.70;;;;;;;11.59;43.25;101099.72;5133286;27;20071;-69
2023/03/11 10:07:10;;;;;;;6.55;1.70;;;;;;;11.64;43.07;101099.75;5133314;27;20051;-67
2023/03/11 10:09:55;;;;;;;4.57;1.80;;;;;;;11.65;43.33;101093.59;5116472;27;20173;-68
2023/03/11 10:12:45;;;;;;;4.15;1.70;;;;;;;11.37;41.62;101089.78;5133692;27;20031;-67
2023/03/11 10:15:30;;;;;;;5.45;1.60;;;;;;;11.08;43.35;101097.34;5134033;27;20031;-68
2023/03/11 10:18:14;;;;;;;5.03;1.67;;;;;;;10.89;43.41;101101.53;5133514;27;20073;-68
2023/03/11 10:21:18;;;;;;;4.32;1.73;;;;;;;10.93;44.62;101105.97;5133544;28;20027;-67
2023/03/11 10:23:43;;;;;;;4.38;1.63;;;;;;;10.63;41.81;101114.38;5133507;27;20027;-67
2023/03/11 10:26:27;;;;;;;3.33;1.73;;;;;;;10.40;44.03;101106.97;5133664;28;20027;-67
2023/03/11 10:29:05;;;;;;;5.60;1.80;;;;;;;10.30;43.80;101114.72;5133650;28;20075;-67
2023/03/11 10:31:42;;;;;;;6.95;2.45;;;;;;;10.48;44.12;101115.00;5133561;28;20109;-68
2023/03/11 10:34:38;;;;;;;5.20;1.80;;;;;;;10.59;47.27;101123.13;5133098;28;20020;-68
2023/03/11 10:37:10;;;;;;;9.95;2.10;;;;;;;10.62;41.84;101128.41;5090371;27;20123;-68
2023/03/11 10:39:36;;;;;;;6.53;1.80;;;;;;;10.50;42.92;101124.75;5133411;28;20380;-68
2023/03/11 10:42:10;;;;;;;7.65;1.90;;;;;;;10.46;43.49;101116.75;5115480;28;20032;-68
2023/03/11 10:44:38;;;;;;;5.50;1.77;;;;;;;10.57;44.21;101117.78;5133231;28;20114;-67
2023/03/11 10:47:05;;;;;;;7.75;2.00;;;;;;;10.43;40.36;101127.25;5133317;28;20019;-67
2023/03/11 10:49:31;;;;;;;3.95;1.85;;;;;;;10.49;40.18;101127.34;5133211;28;20089;-67
2023/03/11 10:51:57;;;;;;;5.55;1.65;;;;;;;10.63;42.27;101131.09;5133203;28;20031;-67
2023/03/11 10:54:38;;;;;;;3.10;1.58;;;;;;;10.51;41.68;101123.00;5133502;27;20023;-67
2023/03/11 10:57:20;;;;;;;8.70;1.90;;;;;;;10.66;41.41;101117.94;5133496;28;20023;-67
2023/03/11 10:59:49;;;;;;;3.53;1.73;;;;;;;10.91;42.46;101121.81;5133244;28;20410;-67
2023/03/11 11:02:18;;;;;;;5.97;1.75;;;;;;;11.17;41.36;101121.25;5132850;28;20098;-67
2023/03/11 11:04:44;;;;;;;4.90;1.75;;;;;;;11.39;40.03;101107.44;5133212;28;20080;-67
2023/03/11 11:07:27;;;;;;;3.75;1.63;;;;;;;11.68;40.55;101106.84;5132745;28;20457;-67
2023/03/11 11:10:10;;;;;;;8.32;1.80;;;;;;;11.94;43.07;101113.31;5133443;28;20023;-67
2023/03/11 11:12:49;;;;;;;9.75;2.25;;;;;;;11.85;37.50;101107.06;5133253;28;20058;-67
2023/03/11 11:15:33;;;;;;;4.40;1.85;;;;;;;11.92;41.88;101119.50;5133417;28;20179;-67
2023/03/11 11:18:02;;;;;;;3.47;1.73;;;;;;;11.97;38.57;101113.38;5132974;28;20027;-67
2023/03/11 11:20:30;;;;;;;4.55;1.83;;;;;;;12.09;40.17;101117.00;5132955;27;20023;-67
2023/03/11 11:23:01;;;;;;;4.80;1.73;;;;;;;12.28;42.26;101121.56;5134438;27;20067;-66
2023/03/11 11:25:32;;;;;;;4.73;1.73;;;;;;;12.27;40.01;101123.34;5137112;27;20050;-67
2023/03/11 11:28:04;;;;;;;5.07;1.70;;;;;;;12.13;37.97;101121.47;5136745;27;20082;-67
2023/03/11 11:30:30;;;;;;;7.82;2.15;;;;;;;11.99;39.61;101122.22;5136865;27;20046;-66
2023/03/11 11:32:55;;;;;;;5.05;1.70;;;;;;;11.73;39.99;101113.09;5117603;27;20023;-67
2023/03/11 11:35:23;;;;;;;5.18;1.83;;;;;;;11.77;39.41;101115.78;5136231;27;20468;-66